sensor_id;sensor_type;location;lat;lon;timestamp;pressure;altitude;pressure_sealevel;temperature;humidity
68525;BME280;55524;51.380;13.372;2022-07-29T00:02:19;100788.88;;;15.25;61.32
68525;BME280;55524;51.380;13.372;2022-07-29T00:04:45;100788.56;;;15.14;61.78
68525;BME280;55524;51.380;13.372;2022-07-29T00:07:12;100790.81;;;15.04;61.95
68525;BME280;55524;51.380;13.372;2022-07-29T00:09:38;100794.94;;;14.92;62.95
68525;BME280;55524;51.380;13.372;2022-07-29T00:12:04;100786.75;;;14.97;63.24
68525;BME280;55524;51.380;13.372;2022-07-29T00:14:31;100788.75;;;14.92;64.02
68525;BME280;55524;51.380;13.372;2022-07-29T00:16:57;100777.19;;;14.93;63.68
68525;BME280;55524;51.380;13.372;2022-07-29T00:19:24;100777.09;;;14.94;64.41
68525;BME280;55524;51.380;13.372;2022-07-29T00:21:50;100779.06;;;14.91;64.79
68525;BME280;55524;51.380;13.372;2022-07-29T00:24:16;100781.94;;;14.86;65.86
68525;BME280;55524;51.380;13.372;2022-07-29T00:26:42;100770.84;;;14.78;65.19
68525;BME280;55524;51.380;13.372;2022-07-29T00:29:09;100756.97;;;14.71;65.06
68525;BME280;55524;51.380;13.372;2022-07-29T00:31:35;100751.63;;;14.71;64.51
68525;BME280;55524;51.380;13.372;2022-07-29T00:34:03;100747.56;;;14.64;64.79
68525;BME280;55524;51.380;13.372;2022-07-29T00:36:30;100756.72;;;14.59;65.06
68525;BME280;55524;51.380;13.372;2022-07-29T00:39:21;100754.41;;;14.51;65.26
68525;BME280;55524;51.380;13.372;2022-07-29T00:42:32;100754.63;;;14.46;65.14
68525;BME280;55524;51.380;13.372;2022-07-29T05:05:21;100639.63;;;15.60;62.18
68525;BME280;55524;51.380;13.372;2022-07-29T05:08:16;100632.13;;;15.68;60.96
68525;BME280;55524;51.380;13.372;2022-07-29T05:17:29;100628.56;;;15.99;60.30
68525;BME280;55524;51.380;13.372;2022-07-29T05:20:00;100631.75;;;16.06;60.26
68525;BME280;55524;51.380;13.372;2022-07-29T05:26:01;100617.72;;;16.18;57.71
68525;BME280;55524;51.380;13.372;2022-07-29T05:32:18;100613.50;;;16.60;57.08
68525;BME280;55524;51.380;13.372;2022-07-29T05:37:53;100617.09;;;16.89;56.08
68525;BME280;55524;51.380;13.372;2022-07-29T05:43:38;100604.63;;;17.04;55.69
68525;BME280;55524;51.380;13.372;2022-07-29T05:46:29;100601.38;;;16.99;55.74
68525;BME280;55524;51.380;13.372;2022-07-29T05:51:51;100615.13;;;17.21;55.32
68525;BME280;55524;51.380;13.372;2022-07-29T05:54:46;100600.06;;;17.34;53.59
68525;BME280;55524;51.380;13.372;2022-07-29T05:57:40;100606.91;;;17.38;53.63
68525;BME280;55524;51.380;13.372;2022-07-29T06:00:07;100611.38;;;17.52;54.66
68525;BME280;55524;51.380;13.372;2022-07-29T06:02:37;100601.84;;;17.48;54.14
68525;BME280;55524;51.380;13.372;2022-07-29T06:05:11;100602.50;;;17.52;54.67
68525;BME280;55524;51.380;13.372;2022-07-29T06:10:14;100604.84;;;17.70;54.05
68525;BME280;55524;51.380;13.372;2022-07-29T06:17:58;100605.84;;;17.55;52.93
68525;BME280;55524;51.380;13.372;2022-07-29T06:20:32;100605.53;;;17.60;53.32
68525;BME280;55524;51.380;13.372;2022-07-29T06:23:04;100602.88;;;18.01;52.89
68525;BME280;55524;51.380;13.372;2022-07-29T06:25:31;100603.88;;;18.13;53.15
68525;BME280;55524;51.380;13.372;2022-07-29T06:28:00;100594.44;;;18.34;51.64
68525;BME280;55524;51.380;13.372;2022-07-29T06:30:27;100592.09;;;18.42;51.31
68525;BME280;55524;51.380;13.372;2022-07-29T06:32:54;100598.84;;;18.61;51.88
68525;BME280;55524;51.380;13.372;2022-07-29T06:35:21;100595.06;;;18.78;51.19
68525;BME280;55524;51.380;13.372;2022-07-29T06:37:48;100592.72;;;18.86;50.92
68525;BME280;55524;51.380;13.372;2022-07-29T06:40:41;100587.53;;;18.57;50.05
68525;BME280;55524;51.380;13.372;2022-07-29T06:46:31;100597.22;;;18.85;51.14
68525;BME280;55524;51.380;13.372;2022-07-29T06:49:01;100596.47;;;18.96;50.82
68525;BME280;55524;51.380;13.372;2022-07-29T06:54:56;100580.44;;;19.46;48.79
68525;BME280;55524;51.380;13.372;2022-07-29T06:57:27;100580.44;;;19.46;48.86
68525;BME280;55524;51.380;13.372;2022-07-29T07:00:26;100572.25;;;19.73;47.97
68525;BME280;55524;51.380;13.372;2022-07-29T07:03:05;100573.28;;;19.83;47.60
68525;BME280;55524;51.380;13.372;2022-07-29T07:05:46;100572.94;;;20.11;48.43
68525;BME280;55524;51.380;13.372;2022-07-29T07:08:14;100568.25;;;19.78;47.91
68525;BME280;55524;51.380;13.372;2022-07-29T07:10:45;100573.53;;;20.04;48.07
68525;BME280;55524;51.380;13.372;2022-07-29T07:13:13;100565.97;;;20.09;47.27
68525;BME280;55524;51.380;13.372;2022-07-29T07:15:41;100596.56;;;20.30;50.33
68525;BME280;55524;51.380;13.372;2022-07-29T07:18:15;100584.91;;;20.19;48.43
68525;BME280;55524;51.380;13.372;2022-07-29T07:20:41;100581.41;;;20.29;47.25
68525;BME280;55524;51.380;13.372;2022-07-29T07:23:09;100565.72;;;20.36;46.46
68525;BME280;55524;51.380;13.372;2022-07-29T07:25:35;100576.59;;;20.46;47.51
68525;BME280;55524;51.380;13.372;2022-07-29T07:28:01;100581.56;;;20.63;49.06
68525;BME280;55524;51.380;13.372;2022-07-29T07:30:28;100584.66;;;20.92;48.22
68525;BME280;55524;51.380;13.372;2022-07-29T07:32:55;100555.94;;;20.81;45.25
68525;BME280;55524;51.380;13.372;2022-07-29T07:35:21;100558.66;;;21.04;45.85
68525;BME280;55524;51.380;13.372;2022-07-29T07:37:49;100552.16;;;21.18;44.99
68525;BME280;55524;51.380;13.372;2022-07-29T07:40:18;100554.63;;;21.32;44.92
68525;BME280;55524;51.380;13.372;2022-07-29T07:42:45;100556.81;;;20.93;44.99
68525;BME280;55524;51.380;13.372;2022-07-29T07:45:12;100550.59;;;21.49;43.72
68525;BME280;55524;51.380;13.372;2022-07-29T07:47:43;100547.16;;;21.02;44.55
68525;BME280;55524;51.380;13.372;2022-07-29T07:50:12;100543.03;;;21.43;44.07
68525;BME280;55524;51.380;13.372;2022-07-29T07:52:51;100547.44;;;21.44;44.40
68525;BME280;55524;51.380;13.372;2022-07-29T07:55:19;100533.47;;;21.27;44.18
68525;BME280;55524;51.380;13.372;2022-07-29T07:57:46;100546.16;;;21.70;45.19
68525;BME280;55524;51.380;13.372;2022-07-29T08:00:14;100531.91;;;21.91;44.74
68525;BME280;55524;51.380;13.372;2022-07-29T08:02:41;100522.63;;;21.83;43.80
68525;BME280;55524;51.380;13.372;2022-07-29T08:05:09;100513.06;;;21.91;44.46
68525;BME280;55524;51.380;13.372;2022-07-29T08:07:39;100512.16;;;21.69;43.39
68525;BME280;55524;51.380;13.372;2022-07-29T08:10:07;100510.63;;;22.20;43.74
68525;BME280;55524;51.380;13.372;2022-07-29T08:12:38;100513.13;;;22.32;43.30
68525;BME280;55524;51.380;13.372;2022-07-29T08:15:06;100503.00;;;22.25;42.28
68525;BME280;55524;51.380;13.372;2022-07-29T08:17:38;100510.19;;;22.15;43.02
68525;BME280;55524;51.380;13.372;2022-07-29T08:20:10;100517.00;;;22.40;42.89
68525;BME280;55524;51.380;13.372;2022-07-29T08:22:38;100516.91;;;22.72;42.40
68525;BME280;55524;51.380;13.372;2022-07-29T08:25:07;100517.09;;;22.80;41.76
68525;BME280;55524;51.380;13.372;2022-07-29T08:27:33;100511.75;;;22.90;42.32
68525;BME280;55524;51.380;13.372;2022-07-29T08:30:10;100517.22;;;22.99;42.06
68525;BME280;55524;51.380;13.372;2022-07-29T08:32:37;100509.75;;;22.82;41.37
68525;BME280;55524;51.380;13.372;2022-07-29T08:35:04;100521.00;;;23.18;42.17
68525;BME280;55524;51.380;13.372;2022-07-29T08:37:30;100514.91;;;23.25;42.11
68525;BME280;55524;51.380;13.372;2022-07-29T08:39:57;100504.81;;;23.18;42.33
68525;BME280;55524;51.380;13.372;2022-07-29T08:42:23;100502.00;;;23.29;41.24
68525;BME280;55524;51.380;13.372;2022-07-29T08:44:49;100490.63;;;23.25;41.61
68525;BME280;55524;51.380;13.372;2022-07-29T08:47:16;100491.84;;;23.62;41.97
68525;BME280;55524;51.380;13.372;2022-07-29T08:49:43;100477.78;;;24.26;40.22
68525;BME280;55524;51.380;13.372;2022-07-29T08:52:11;100468.81;;;24.35;39.39
68525;BME280;55524;51.380;13.372;2022-07-29T08:54:40;100478.09;;;24.80;39.32
68525;BME280;55524;51.380;13.372;2022-07-29T08:57:14;100469.00;;;24.81;38.85
68525;BME280;55524;51.380;13.372;2022-07-29T08:59:42;100462.53;;;24.91;38.22
68525;BME280;55524;51.380;13.372;2022-07-29T09:02:21;100459.50;;;25.32;38.32
68525;BME280;55524;51.380;13.372;2022-07-29T09:04:48;100461.31;;;25.59;37.46
68525;BME280;55524;51.380;13.372;2022-07-29T09:07:16;100459.34;;;25.79;37.63
68525;BME280;55524;51.380;13.372;2022-07-29T09:09:43;100472.84;;;25.96;37.41
68525;BME280;55524;51.380;13.372;2022-07-29T09:12:11;100460.19;;;25.34;36.66
68525;BME280;55524;51.380;13.372;2022-07-29T09:14:41;100478.41;;;25.04;38.67
68525;BME280;55524;51.380;13.372;2022-07-29T09:17:08;100475.06;;;24.92;37.50
68525;BME280;55524;51.380;13.372;2022-07-29T09:19:36;100479.25;;;24.77;38.84
68525;BME280;55524;51.380;13.372;2022-07-29T09:22:05;100479.91;;;24.89;38.78
68525;BME280;55524;51.380;13.372;2022-07-29T09:24:39;100476.94;;;24.25;39.19
68525;BME280;55524;51.380;13.372;2022-07-29T09:27:31;100484.06;;;25.20;38.89
68525;BME280;55524;51.380;13.372;2022-07-29T09:30:04;100473.91;;;25.68;37.86
68525;BME280;55524;51.380;13.372;2022-07-29T09:32:32;100460.88;;;25.81;36.65
68525;BME280;55524;51.380;13.372;2022-07-29T09:35:20;100468.09;;;24.90;37.80
68525;BME280;55524;51.380;13.372;2022-07-29T09:37:47;100468.34;;;24.96;38.91
68525;BME280;55524;51.380;13.372;2022-07-29T09:40:19;100465.31;;;25.37;38.10
68525;BME280;55524;51.380;13.372;2022-07-29T09:42:48;100467.31;;;25.07;38.37
68525;BME280;55524;51.380;13.372;2022-07-29T09:45:29;100460.19;;;25.79;36.68
68525;BME280;55524;51.380;13.372;2022-07-29T09:47:56;100455.22;;;25.74;37.11
68525;BME280;55524;51.380;13.372;2022-07-29T09:50:55;100461.69;;;26.61;37.10
68525;BME280;55524;51.380;13.372;2022-07-29T09:53:34;100457.84;;;26.80;36.31
68525;BME280;55524;51.380;13.372;2022-07-29T09:56:02;100452.34;;;26.98;36.13
68525;BME280;55524;51.380;13.372;2022-07-29T09:58:28;100446.75;;;27.34;35.12
68525;BME280;55524;51.380;13.372;2022-07-29T10:00:55;100440.59;;;26.81;34.73
68525;BME280;55524;51.380;13.372;2022-07-29T10:03:22;100447.59;;;27.34;35.44
68525;BME280;55524;51.380;13.372;2022-07-29T10:06:10;100446.09;;;27.48;35.20
68525;BME280;55524;51.380;13.372;2022-07-29T10:08:37;100443.06;;;27.67;34.57
68525;BME280;55524;51.380;13.372;2022-07-29T10:11:15;100434.94;;;28.08;33.66
68525;BME280;55524;51.380;13.372;2022-07-29T10:13:43;100430.81;;;28.53;33.26
68525;BME280;55524;51.380;13.372;2022-07-29T10:16:10;100430.69;;;28.38;33.75
68525;BME280;55524;51.380;13.372;2022-07-29T10:18:42;100426.81;;;27.92;34.12
68525;BME280;55524;51.380;13.372;2022-07-29T10:21:09;100429.53;;;28.08;34.35
68525;BME280;55524;51.380;13.372;2022-07-29T10:23:37;100413.84;;;27.53;32.73
68525;BME280;55524;51.380;13.372;2022-07-29T10:26:04;100406.41;;;28.21;32.34
68525;BME280;55524;51.380;13.372;2022-07-29T10:28:32;100397.03;;;28.39;31.67
68525;BME280;55524;51.380;13.372;2022-07-29T10:31:05;100397.22;;;28.13;31.59
68525;BME280;55524;51.380;13.372;2022-07-29T10:37:20;100402.31;;;29.51;32.95
68525;BME280;55524;51.380;13.372;2022-07-29T10:42:56;100377.41;;;29.31;31.40
68525;BME280;55524;51.380;13.372;2022-07-29T10:45:38;100369.78;;;29.49;31.05
68525;BME280;55524;51.380;13.372;2022-07-29T10:48:05;100380.19;;;29.46;30.81
68525;BME280;55524;51.380;13.372;2022-07-29T10:51:01;100382.63;;;28.70;31.04
68525;BME280;55524;51.380;13.372;2022-07-29T10:53:50;100374.75;;;29.23;31.43
68525;BME280;55524;51.380;13.372;2022-07-29T10:56:43;100366.88;;;29.28;30.41
68525;BME280;55524;51.380;13.372;2022-07-29T11:01:50;100359.72;;;29.50;30.34
68525;BME280;55524;51.380;13.372;2022-07-29T11:07:10;100366.81;;;30.34;29.94
68525;BME280;55524;51.380;13.372;2022-07-29T11:09:36;100363.88;;;30.21;29.48
68525;BME280;55524;51.380;13.372;2022-07-29T11:12:03;100353.56;;;30.31;28.89
68525;BME280;55524;51.380;13.372;2022-07-29T11:15:00;100364.81;;;30.88;29.98
68525;BME280;55524;51.380;13.372;2022-07-29T11:17:28;100351.84;;;30.60;28.17
68525;BME280;55524;51.380;13.372;2022-07-29T11:20:33;100344.97;;;31.15;27.54
68525;BME280;55524;51.380;13.372;2022-07-29T11:23:01;100356.59;;;31.02;27.99
68525;BME280;55524;51.380;13.372;2022-07-29T11:25:27;100348.81;;;30.84;28.13
68525;BME280;55524;51.380;13.372;2022-07-29T11:28:08;100345.00;;;30.49;27.73
68525;BME280;55524;51.380;13.372;2022-07-29T11:30:53;100355.25;;;29.34;29.19
68525;BME280;55524;51.380;13.372;2022-07-29T11:33:34;100356.56;;;29.84;29.15
68525;BME280;55524;51.380;13.372;2022-07-29T11:36:21;100354.28;;;30.10;29.36
68525;BME280;55524;51.380;13.372;2022-07-29T11:38:48;100352.63;;;30.01;28.68
68525;BME280;55524;51.380;13.372;2022-07-29T11:41:24;100353.72;;;29.62;28.89
68525;BME280;55524;51.380;13.372;2022-07-29T11:43:58;100351.16;;;30.88;29.34
68525;BME280;55524;51.380;13.372;2022-07-29T11:49:12;100345.13;;;30.92;28.76
68525;BME280;55524;51.380;13.372;2022-07-29T11:51:39;100335.31;;;30.47;28.22
68525;BME280;55524;51.380;13.372;2022-07-29T11:54:09;100335.81;;;29.83;28.86
68525;BME280;55524;51.380;13.372;2022-07-29T11:56:39;100336.38;;;29.32;29.31
68525;BME280;55524;51.380;13.372;2022-07-29T11:59:09;100342.44;;;30.62;30.08
68525;BME280;55524;51.380;13.372;2022-07-29T12:01:36;100334.03;;;30.94;29.33
68525;BME280;55524;51.380;13.372;2022-07-29T12:04:07;100332.97;;;31.31;28.73
68525;BME280;55524;51.380;13.372;2022-07-29T12:06:34;100333.91;;;31.23;28.54
68525;BME280;55524;51.380;13.372;2022-07-29T12:09:00;100327.25;;;30.01;29.47
68525;BME280;55524;51.380;13.372;2022-07-29T12:11:32;100328.34;;;30.95;29.19
68525;BME280;55524;51.380;13.372;2022-07-29T12:13:58;100316.81;;;30.63;27.63
68525;BME280;55524;51.380;13.372;2022-07-29T12:16:35;100319.06;;;29.25;29.61
68525;BME280;55524;51.380;13.372;2022-07-29T12:19:03;100327.06;;;29.27;30.51
68525;BME280;55524;51.380;13.372;2022-07-29T12:21:46;100322.75;;;29.55;29.85
68525;BME280;55524;51.380;13.372;2022-07-29T12:24:12;100321.22;;;29.76;30.84
68525;BME280;55524;51.380;13.372;2022-07-29T12:29:16;100317.38;;;29.85;29.73
68525;BME280;55524;51.380;13.372;2022-07-29T12:31:44;100319.59;;;30.34;29.15
68525;BME280;55524;51.380;13.372;2022-07-29T12:34:12;100313.28;;;30.48;28.28
68525;BME280;55524;51.380;13.372;2022-07-29T12:36:40;100315.06;;;30.56;29.34
68525;BME280;55524;51.380;13.372;2022-07-29T12:39:06;100308.19;;;30.75;28.32
68525;BME280;55524;51.380;13.372;2022-07-29T12:41:35;100303.78;;;30.95;27.99
68525;BME280;55524;51.380;13.372;2022-07-29T12:44:01;100298.44;;;30.87;27.91
68525;BME280;55524;51.380;13.372;2022-07-29T12:46:28;100302.63;;;31.69;28.60
68525;BME280;55524;51.380;13.372;2022-07-29T12:48:55;100290.09;;;31.53;27.00
68525;BME280;55524;51.380;13.372;2022-07-29T12:54:09;100279.47;;;31.93;26.57
68525;BME280;55524;51.380;13.372;2022-07-29T12:56:41;100283.97;;;31.51;27.04
68525;BME280;55524;51.380;13.372;2022-07-29T12:59:16;100275.13;;;31.77;27.38
68525;BME280;55524;51.380;13.372;2022-07-29T13:01:43;100277.19;;;31.68;28.21
68525;BME280;55524;51.380;13.372;2022-07-29T13:04:10;100281.69;;;31.11;28.08
68525;BME280;55524;51.380;13.372;2022-07-29T13:11:40;100279.72;;;30.03;28.49
68525;BME280;55524;51.380;13.372;2022-07-29T13:14:09;100276.03;;;29.96;28.83
68525;BME280;55524;51.380;13.372;2022-07-29T13:16:37;100279.94;;;30.53;28.97
68525;BME280;55524;51.380;13.372;2022-07-29T13:19:37;100273.41;;;30.47;30.28
68525;BME280;55524;51.380;13.372;2022-07-29T13:22:04;100276.78;;;30.05;28.84
68525;BME280;55524;51.380;13.372;2022-07-29T13:24:30;100275.19;;;30.10;28.64
68525;BME280;55524;51.380;13.372;2022-07-29T13:26:56;100277.72;;;30.12;29.62
68525;BME280;55524;51.380;13.372;2022-07-29T13:29:23;100276.03;;;30.11;29.11
68525;BME280;55524;51.380;13.372;2022-07-29T13:31:49;100277.66;;;30.05;29.70
68525;BME280;55524;51.380;13.372;2022-07-29T13:34:15;100293.28;;;30.41;32.22
68525;BME280;55524;51.380;13.372;2022-07-29T13:36:42;100278.47;;;29.91;30.34
68525;BME280;55524;51.380;13.372;2022-07-29T13:39:08;100272.41;;;30.70;29.35
68525;BME280;55524;51.380;13.372;2022-07-29T13:41:35;100274.50;;;30.53;29.09
68525;BME280;55524;51.380;13.372;2022-07-29T13:44:01;100283.03;;;30.65;30.03
68525;BME280;55524;51.380;13.372;2022-07-29T13:46:28;100269.75;;;30.76;29.05
68525;BME280;55524;51.380;13.372;2022-07-29T13:48:54;100262.84;;;30.59;28.98
68525;BME280;55524;51.380;13.372;2022-07-29T13:51:21;100276.84;;;30.56;29.96
68525;BME280;55524;51.380;13.372;2022-07-29T13:53:47;100269.34;;;29.69;29.66
68525;BME280;55524;51.380;13.372;2022-07-29T13:56:13;100266.03;;;30.62;28.98
68525;BME280;55524;51.380;13.372;2022-07-29T13:58:39;100252.84;;;30.81;29.16
68525;BME280;55524;51.380;13.372;2022-07-29T14:01:06;100256.50;;;31.16;28.30
68525;BME280;55524;51.380;13.372;2022-07-29T14:03:32;100252.94;;;30.73;28.03
68525;BME280;55524;51.380;13.372;2022-07-29T14:05:58;100258.75;;;30.33;29.87
68525;BME280;55524;51.380;13.372;2022-07-29T14:08:26;100261.56;;;30.40;29.45
68525;BME280;55524;51.380;13.372;2022-07-29T14:10:52;100252.94;;;29.54;29.78
68525;BME280;55524;51.380;13.372;2022-07-29T14:13:18;100255.38;;;30.02;29.78
68525;BME280;55524;51.380;13.372;2022-07-29T14:15:45;100253.19;;;29.97;29.77
68525;BME280;55524;51.380;13.372;2022-07-29T14:18:11;100251.97;;;30.14;29.75
68525;BME280;55524;51.380;13.372;2022-07-29T14:20:37;100254.81;;;30.06;29.82
68525;BME280;55524;51.380;13.372;2022-07-29T14:23:03;100244.47;;;30.02;29.38
68525;BME280;55524;51.380;13.372;2022-07-29T14:25:30;100245.31;;;29.50;29.98
68525;BME280;55524;51.380;13.372;2022-07-29T14:27:56;100251.84;;;29.26;30.40
68525;BME280;55524;51.380;13.372;2022-07-29T14:30:22;100248.50;;;29.91;29.92
68525;BME280;55524;51.380;13.372;2022-07-29T14:32:49;100246.28;;;30.97;29.66
68525;BME280;55524;51.380;13.372;2022-07-29T14:35:15;100239.78;;;31.47;30.51
68525;BME280;55524;51.380;13.372;2022-07-29T14:37:42;100230.25;;;31.65;28.39
68525;BME280;55524;51.380;13.372;2022-07-29T14:40:09;100232.25;;;31.49;27.45
68525;BME280;55524;51.380;13.372;2022-07-29T14:42:37;100234.56;;;30.81;28.19
68525;BME280;55524;51.380;13.372;2022-07-29T14:45:06;100233.53;;;31.53;27.99
68525;BME280;55524;51.380;13.372;2022-07-29T14:47:32;100227.47;;;31.86;27.36
68525;BME280;55524;51.380;13.372;2022-07-29T14:49:59;100223.03;;;31.29;27.62
68525;BME280;55524;51.380;13.372;2022-07-29T14:52:25;100234.69;;;30.73;28.95
68525;BME280;55524;51.380;13.372;2022-07-29T14:54:52;100237.81;;;30.55;29.07
68525;BME280;55524;51.380;13.372;2022-07-29T14:57:18;100238.25;;;30.08;29.34
68525;BME280;55524;51.380;13.372;2022-07-29T14:59:44;100235.50;;;29.93;30.28
68525;BME280;55524;51.380;13.372;2022-07-29T15:02:10;100243.88;;;29.62;30.09
68525;BME280;55524;51.380;13.372;2022-07-29T15:04:37;100254.44;;;29.42;30.78
68525;BME280;55524;51.380;13.372;2022-07-29T15:07:03;100257.44;;;29.47;32.03
68525;BME280;55524;51.380;13.372;2022-07-29T15:09:30;100256.22;;;29.50;31.31
68525;BME280;55524;51.380;13.372;2022-07-29T15:11:56;100248.84;;;29.58;30.74
68525;BME280;55524;51.380;13.372;2022-07-29T15:14:22;100252.59;;;29.20;30.67
68525;BME280;55524;51.380;13.372;2022-07-29T15:16:49;100244.34;;;29.28;30.34
68525;BME280;55524;51.380;13.372;2022-07-29T15:19:15;100241.06;;;29.32;30.59
68525;BME280;55524;51.380;13.372;2022-07-29T15:21:41;100249.09;;;29.26;31.04
68525;BME280;55524;51.380;13.372;2022-07-29T15:24:08;100250.38;;;30.05;30.32
68525;BME280;55524;51.380;13.372;2022-07-29T15:26:34;100234.22;;;30.19;29.26
68525;BME280;55524;51.380;13.372;2022-07-29T15:29:00;100260.56;;;30.77;30.80
68525;BME280;55524;51.380;13.372;2022-07-29T15:31:27;100237.44;;;30.58;28.59
68525;BME280;55524;51.380;13.372;2022-07-29T15:33:55;100235.34;;;30.60;29.25
68525;BME280;55524;51.380;13.372;2022-07-29T15:36:21;100232.50;;;30.32;29.11
68525;BME280;55524;51.380;13.372;2022-07-29T15:38:47;100238.91;;;29.28;30.85
68525;BME280;55524;51.380;13.372;2022-07-29T15:41:14;100241.16;;;30.06;31.34
68525;BME280;55524;51.380;13.372;2022-07-29T15:43:44;100234.66;;;30.07;30.10
68525;BME280;55524;51.380;13.372;2022-07-29T15:46:15;100227.16;;;29.65;30.46
68525;BME280;55524;51.380;13.372;2022-07-29T15:49:04;100230.50;;;29.14;31.73
68525;BME280;55524;51.380;13.372;2022-07-29T15:51:31;100225.94;;;29.68;30.82
68525;BME280;55524;51.380;13.372;2022-07-29T15:53:58;100225.28;;;29.95;30.61
68525;BME280;55524;51.380;13.372;2022-07-29T15:56:24;100222.69;;;29.49;31.42
68525;BME280;55524;51.380;13.372;2022-07-29T15:58:51;100214.09;;;29.23;31.12
68525;BME280;55524;51.380;13.372;2022-07-29T16:01:19;100215.34;;;28.89;31.41
68525;BME280;55524;51.380;13.372;2022-07-29T16:03:45;100210.78;;;29.50;30.30
68525;BME280;55524;51.380;13.372;2022-07-29T16:06:12;100209.94;;;29.12;30.68
68525;BME280;55524;51.380;13.372;2022-07-29T16:08:39;100207.69;;;29.68;31.41
68525;BME280;55524;51.380;13.372;2022-07-29T16:11:05;100211.34;;;29.08;30.79
68525;BME280;55524;51.380;13.372;2022-07-29T16:13:31;100215.50;;;28.96;32.63
68525;BME280;55524;51.380;13.372;2022-07-29T16:21:10;100201.81;;;28.81;31.90
68525;BME280;55524;51.380;13.372;2022-07-29T16:23:37;100198.47;;;28.71;31.54
68525;BME280;55524;51.380;13.372;2022-07-29T16:26:04;100202.34;;;28.53;32.29
68525;BME280;55524;51.380;13.372;2022-07-29T16:28:30;100197.94;;;28.52;32.04
68525;BME280;55524;51.380;13.372;2022-07-29T16:30:56;100204.94;;;28.47;32.58
68525;BME280;55524;51.380;13.372;2022-07-29T16:33:24;100197.88;;;28.29;32.88
68525;BME280;55524;51.380;13.372;2022-07-29T16:35:51;100207.25;;;28.18;32.51
68525;BME280;55524;51.380;13.372;2022-07-29T16:38:18;100206.66;;;28.08;32.48
68525;BME280;55524;51.380;13.372;2022-07-29T16:40:44;100203.41;;;28.13;32.52
68525;BME280;55524;51.380;13.372;2022-07-29T16:43:11;100202.94;;;28.01;32.85
68525;BME280;55524;51.380;13.372;2022-07-29T16:45:37;100200.78;;;27.88;32.65
68525;BME280;55524;51.380;13.372;2022-07-29T16:48:04;100209.75;;;27.97;33.61
68525;BME280;55524;51.380;13.372;2022-07-29T16:50:30;100204.50;;;27.87;33.06
68525;BME280;55524;51.380;13.372;2022-07-29T16:52:57;100203.88;;;27.77;33.20
68525;BME280;55524;51.380;13.372;2022-07-29T16:55:23;100211.53;;;27.74;32.82
68525;BME280;55524;51.380;13.372;2022-07-29T16:57:50;100214.56;;;27.70;33.94
68525;BME280;55524;51.380;13.372;2022-07-29T17:00:20;100214.22;;;27.65;34.72
68525;BME280;55524;51.380;13.372;2022-07-29T17:02:47;100218.34;;;27.53;34.36
68525;BME280;55524;51.380;13.372;2022-07-29T17:05:14;100252.59;;;26.89;37.98
68525;BME280;55524;51.380;13.372;2022-07-29T17:07:41;100281.22;;;26.41;41.14
68525;BME280;55524;51.380;13.372;2022-07-29T17:10:08;100283.50;;;25.85;42.41
68525;BME280;55524;51.380;13.372;2022-07-29T17:12:36;100298.47;;;25.71;43.20
68525;BME280;55524;51.380;13.372;2022-07-29T17:15:09;100302.06;;;25.54;43.70
68525;BME280;55524;51.380;13.372;2022-07-29T17:17:36;100314.66;;;25.45;44.53
68525;BME280;55524;51.380;13.372;2022-07-29T17:20:03;100316.38;;;25.29;45.31
68525;BME280;55524;51.380;13.372;2022-07-29T17:22:30;100322.19;;;25.16;45.33
68525;BME280;55524;51.380;13.372;2022-07-29T17:24:57;100323.50;;;25.12;45.77
68525;BME280;55524;51.380;13.372;2022-07-29T17:27:23;100325.47;;;24.92;46.71
68525;BME280;55524;51.380;13.372;2022-07-29T17:29:49;100330.00;;;24.73;46.81
68525;BME280;55524;51.380;13.372;2022-07-29T17:32:16;100334.31;;;24.66;47.58
68525;BME280;55524;51.380;13.372;2022-07-29T17:34:42;100322.50;;;24.67;47.49
68525;BME280;55524;51.380;13.372;2022-07-29T17:37:10;100336.16;;;24.66;47.32
68525;BME280;55524;51.380;13.372;2022-07-29T17:39:38;100336.03;;;24.67;47.36
68525;BME280;55524;51.380;13.372;2022-07-29T17:42:07;100327.50;;;24.62;48.04
68525;BME280;55524;51.380;13.372;2022-07-29T17:44:34;100333.41;;;24.48;48.42
68525;BME280;55524;51.380;13.372;2022-07-29T17:47:04;100342.81;;;24.44;48.78
68525;BME280;55524;51.380;13.372;2022-07-29T17:49:31;100346.22;;;24.46;49.69
68525;BME280;55524;51.380;13.372;2022-07-29T17:51:57;100356.47;;;24.42;50.54
68525;BME280;55524;51.380;13.372;2022-07-29T17:54:24;100345.09;;;24.39;50.50
68525;BME280;55524;51.380;13.372;2022-07-29T17:56:50;100354.22;;;24.28;50.99
68525;BME280;55524;51.380;13.372;2022-07-29T17:59:16;100355.97;;;24.19;51.27
68525;BME280;55524;51.380;13.372;2022-07-29T18:01:43;100355.22;;;24.27;50.62
68525;BME280;55524;51.380;13.372;2022-07-29T18:04:09;100357.44;;;24.04;50.71
68525;BME280;55524;51.380;13.372;2022-07-29T18:06:36;100348.50;;;24.03;50.30
68525;BME280;55524;51.380;13.372;2022-07-29T18:09:03;100354.59;;;24.05;50.55
68525;BME280;55524;51.380;13.372;2022-07-29T18:11:29;100355.31;;;23.98;50.59
68525;BME280;55524;51.380;13.372;2022-07-29T18:13:57;100348.78;;;24.00;50.81
68525;BME280;55524;51.380;13.372;2022-07-29T18:16:23;100356.16;;;23.98;49.96
68525;BME280;55524;51.380;13.372;2022-07-29T18:18:50;100345.91;;;24.02;49.54
68525;BME280;55524;51.380;13.372;2022-07-29T18:21:16;100352.59;;;24.08;48.92
68525;BME280;55524;51.380;13.372;2022-07-29T18:23:42;100354.25;;;24.18;48.61